sensor_id;sensor_type;location;lat;lon;timestamp;P1;durP1;ratioP1;P2;durP2;ratioP2
21671;SDS011;10997;52.242;8.168;2023-03-21T00:00:34;34.42;;;18.30;;
21671;SDS011;10997;52.242;8.168;2023-03-21T00:05:42;31.15;;;16.77;;
21671;SDS011;10997;52.242;8.168;2023-03-21T00:10:54;32.35;;;15.80;;
21671;SDS011;10997;52.242;8.168;2023-03-21T00:15:56;27.98;;;15.98;;
21671;SDS011;10997;52.242;8.168;2023-03-21T00:21:00;31.67;;;16.90;;
21671;SDS011;10997;52.242;8.168;2023-03-21T00:26:03;34.05;;;17.88;;
21671;SDS011;10997;52.242;8.168;2023-03-21T00:31:03;36.58;;;18.38;;
21671;SDS011;10997;52.242;8.168;2023-03-21T00:36:05;32.65;;;17.88;;
21671;SDS011;10997;52.242;8.168;2023-03-21T00:41:07;33.50;;;18.45;;
21671;SDS011;10997;52.242;8.168;2023-03-21T00:46:10;32.65;;;17.35;;
21671;SDS011;10997;52.242;8.168;2023-03-21T00:51:16;38.03;;;19.17;;
21671;SDS011;10997;52.242;8.168;2023-03-21T00:56:26;42.67;;;19.00;;
21671;SDS011;10997;52.242;8.168;2023-03-21T01:01:26;37.17;;;19.08;;
21671;SDS011;10997;52.242;8.168;2023-03-21T01:06:31;34.75;;;18.77;;
21671;SDS011;10997;52.242;8.168;2023-03-21T01:11:38;35.30;;;19.40;;
21671;SDS011;10997;52.242;8.168;2023-03-21T01:16:39;38.65;;;19.02;;
21671;SDS011;10997;52.242;8.168;2023-03-21T01:21:40;39.08;;;19.67;;
21671;SDS011;10997;52.242;8.168;2023-03-21T01:26:41;38.60;;;18.95;;
21671;SDS011;10997;52.242;8.168;2023-03-21T01:31:41;36.13;;;19.25;;
21671;SDS011;10997;52.242;8.168;2023-03-21T01:36:42;40.03;;;19.42;;
21671;SDS011;10997;52.242;8.168;2023-03-21T01:41:42;36.20;;;19.25;;
21671;SDS011;10997;52.242;8.168;2023-03-21T01:46:47;33.88;;;19.00;;
21671;SDS011;10997;52.242;8.168;2023-03-21T01:51:55;37.90;;;19.63;;
21671;SDS011;10997;52.242;8.168;2023-03-21T01:57:07;40.88;;;19.08;;
21671;SDS011;10997;52.242;8.168;2023-03-21T02:02:12;37.17;;;20.23;;
21671;SDS011;10997;52.242;8.168;2023-03-21T02:07:23;42.67;;;21.88;;
21671;SDS011;10997;52.242;8.168;2023-03-21T02:12:28;41.78;;;23.75;;
21671;SDS011;10997;52.242;8.168;2023-03-21T02:17:36;41.33;;;23.42;;
21671;SDS011;10997;52.242;8.168;2023-03-21T02:27:47;57.53;;;25.90;;
21671;SDS011;10997;52.242;8.168;2023-03-21T02:38:17;51.22;;;28.40;;
21671;SDS011;10997;52.242;8.168;2023-03-21T02:43:24;56.60;;;32.53;;
21671;SDS011;10997;52.242;8.168;2023-03-21T02:48:39;55.53;;;31.77;;
21671;SDS011;10997;52.242;8.168;2023-03-21T02:54:00;64.13;;;33.65;;
21671;SDS011;10997;52.242;8.168;2023-03-21T02:59:04;60.70;;;33.80;;
21671;SDS011;10997;52.242;8.168;2023-03-21T03:04:19;64.30;;;34.97;;
21671;SDS011;10997;52.242;8.168;2023-03-21T03:20:07;61.75;;;37.95;;
21671;SDS011;10997;52.242;8.168;2023-03-21T03:25:18;79.60;;;39.95;;
21671;SDS011;10997;52.242;8.168;2023-03-21T03:30:23;77.72;;;41.45;;
21671;SDS011;10997;52.242;8.168;2023-03-21T03:35:26;77.93;;;41.78;;
21671;SDS011;10997;52.242;8.168;2023-03-21T03:40:29;72.68;;;41.15;;
21671;SDS011;10997;52.242;8.168;2023-03-21T03:45:45;74.40;;;42.17;;
21671;SDS011;10997;52.242;8.168;2023-03-21T03:50:52;77.22;;;41.47;;
21671;SDS011;10997;52.242;8.168;2023-03-21T03:56:00;75.80;;;40.78;;
21671;SDS011;10997;52.242;8.168;2023-03-21T04:01:01;75.80;;;40.72;;
21671;SDS011;10997;52.242;8.168;2023-03-21T04:06:02;73.68;;;39.65;;
21671;SDS011;10997;52.242;8.168;2023-03-21T04:11:03;66.65;;;38.63;;
21671;SDS011;10997;52.242;8.168;2023-03-21T04:16:04;72.75;;;37.85;;
21671;SDS011;10997;52.242;8.168;2023-03-21T04:21:09;71.75;;;37.65;;
21671;SDS011;10997;52.242;8.168;2023-03-21T04:26:11;75.05;;;38.50;;
21671;SDS011;10997;52.242;8.168;2023-03-21T04:31:12;70.35;;;38.88;;
21671;SDS011;10997;52.242;8.168;2023-03-21T04:36:13;76.30;;;39.03;;
21671;SDS011;10997;52.242;8.168;2023-03-21T04:41:24;77.78;;;41.42;;
21671;SDS011;10997;52.242;8.168;2023-03-21T04:46:24;78.10;;;41.92;;
21671;SDS011;10997;52.242;8.168;2023-03-21T04:51:25;87.18;;;43.58;;
21671;SDS011;10997;52.242;8.168;2023-03-21T04:56:26;80.90;;;45.08;;
21671;SDS011;10997;52.242;8.168;2023-03-21T05:01:35;91.53;;;47.38;;
21671;SDS011;10997;52.242;8.168;2023-03-21T05:06:36;94.43;;;50.55;;
21671;SDS011;10997;52.242;8.168;2023-03-21T05:11:37;91.82;;;48.30;;
21671;SDS011;10997;52.242;8.168;2023-03-21T05:16:40;91.10;;;48.47;;
21671;SDS011;10997;52.242;8.168;2023-03-21T05:21:47;89.32;;;48.10;;
21671;SDS011;10997;52.242;8.168;2023-03-21T05:26:48;86.13;;;44.40;;
21671;SDS011;10997;52.242;8.168;2023-03-21T05:31:49;87.60;;;41.47;;
21671;SDS011;10997;52.242;8.168;2023-03-21T05:36:50;77.13;;;38.30;;
21671;SDS011;10997;52.242;8.168;2023-03-21T05:41:52;74.28;;;36.03;;
21671;SDS011;10997;52.242;8.168;2023-03-21T05:46:52;64.80;;;33.33;;
21671;SDS011;10997;52.242;8.168;2023-03-21T05:51:53;62.78;;;31.17;;
21671;SDS011;10997;52.242;8.168;2023-03-21T05:56:53;62.90;;;31.42;;
21671;SDS011;10997;52.242;8.168;2023-03-21T06:01:54;59.22;;;29.45;;
21671;SDS011;10997;52.242;8.168;2023-03-21T06:06:55;65.43;;;28.88;;
21671;SDS011;10997;52.242;8.168;2023-03-21T06:11:56;46.40;;;26.45;;
21671;SDS011;10997;52.242;8.168;2023-03-21T06:16:57;57.22;;;26.27;;
21671;SDS011;10997;52.242;8.168;2023-03-21T06:21:58;50.72;;;26.05;;
21671;SDS011;10997;52.242;8.168;2023-03-21T06:26:58;48.90;;;24.80;;
21671;SDS011;10997;52.242;8.168;2023-03-21T06:31:59;46.00;;;24.65;;
21671;SDS011;10997;52.242;8.168;2023-03-21T06:37:00;53.78;;;24.83;;
21671;SDS011;10997;52.242;8.168;2023-03-21T06:42:01;54.20;;;25.88;;
21671;SDS011;10997;52.242;8.168;2023-03-21T06:47:02;47.47;;;26.02;;
21671;SDS011;10997;52.242;8.168;2023-03-21T06:52:02;53.00;;;26.52;;
21671;SDS011;10997;52.242;8.168;2023-03-21T06:57:03;53.80;;;26.88;;
21671;SDS011;10997;52.242;8.168;2023-03-21T07:02:03;49.28;;;27.73;;
21671;SDS011;10997;52.242;8.168;2023-03-21T07:07:04;52.40;;;26.55;;
21671;SDS011;10997;52.242;8.168;2023-03-21T07:12:05;53.97;;;26.10;;
21671;SDS011;10997;52.242;8.168;2023-03-21T07:17:05;52.40;;;26.75;;
21671;SDS011;10997;52.242;8.168;2023-03-21T07:22:06;47.22;;;25.38;;
21671;SDS011;10997;52.242;8.168;2023-03-21T07:27:06;46.80;;;24.70;;
21671;SDS011;10997;52.242;8.168;2023-03-21T07:32:07;47.03;;;24.17;;
21671;SDS011;10997;52.242;8.168;2023-03-21T07:37:07;41.88;;;23.90;;
21671;SDS011;10997;52.242;8.168;2023-03-21T07:42:08;50.65;;;24.42;;
21671;SDS011;10997;52.242;8.168;2023-03-21T07:47:10;38.67;;;24.05;;
21671;SDS011;10997;52.242;8.168;2023-03-21T07:52:11;42.45;;;23.95;;
21671;SDS011;10997;52.242;8.168;2023-03-21T07:57:12;41.17;;;22.95;;
21671;SDS011;10997;52.242;8.168;2023-03-21T08:02:13;38.22;;;23.83;;
21671;SDS011;10997;52.242;8.168;2023-03-21T08:07:15;36.75;;;22.58;;
21671;SDS011;10997;52.242;8.168;2023-03-21T08:12:16;41.53;;;22.63;;
21671;SDS011;10997;52.242;8.168;2023-03-21T08:17:16;37.45;;;22.05;;
21671;SDS011;10997;52.242;8.168;2023-03-21T08:22:17;39.03;;;22.80;;
21671;SDS011;10997;52.242;8.168;2023-03-21T08:27:18;40.20;;;21.75;;
21671;SDS011;10997;52.242;8.168;2023-03-21T08:32:19;39.00;;;22.08;;
21671;SDS011;10997;52.242;8.168;2023-03-21T08:37:20;36.05;;;21.67;;
21671;SDS011;10997;52.242;8.168;2023-03-21T08:42:21;42.50;;;22.60;;
21671;SDS011;10997;52.242;8.168;2023-03-21T08:47:21;34.45;;;21.75;;
21671;SDS011;10997;52.242;8.168;2023-03-21T08:52:22;32.03;;;20.60;;
21671;SDS011;10997;52.242;8.168;2023-03-21T08:57:23;30.33;;;20.08;;
21671;SDS011;10997;52.242;8.168;2023-03-21T09:02:23;36.15;;;22.00;;
21671;SDS011;10997;52.242;8.168;2023-03-21T09:07:24;35.78;;;21.92;;
21671;SDS011;10997;52.242;8.168;2023-03-21T09:12:25;32.60;;;21.38;;
21671;SDS011;10997;52.242;8.168;2023-03-21T09:17:25;38.33;;;24.02;;
21671;SDS011;10997;52.242;8.168;2023-03-21T09:22:26;38.53;;;23.75;;
21671;SDS011;10997;52.242;8.168;2023-03-21T09:27:27;38.42;;;24.23;;
21671;SDS011;10997;52.242;8.168;2023-03-21T09:32:28;39.35;;;25.08;;
21671;SDS011;10997;52.242;8.168;2023-03-21T09:37:28;38.35;;;25.75;;
21671;SDS011;10997;52.242;8.168;2023-03-21T09:47:37;40.05;;;23.48;;
21671;SDS011;10997;52.242;8.168;2023-03-21T09:52:56;39.33;;;21.75;;
21671;SDS011;10997;52.242;8.168;2023-03-21T10:04:03;33.05;;;19.92;;
21671;SDS011;10997;52.242;8.168;2023-03-21T10:09:07;34.03;;;20.92;;
21671;SDS011;10997;52.242;8.168;2023-03-21T10:14:29;33.45;;;20.88;;
21671;SDS011;10997;52.242;8.168;2023-03-21T10:19:33;33.63;;;18.52;;
21671;SDS011;10997;52.242;8.168;2023-03-21T10:24:34;28.00;;;18.45;;
21671;SDS011;10997;52.242;8.168;2023-03-21T10:29:42;30.23;;;17.35;;
21671;SDS011;10997;52.242;8.168;2023-03-21T10:34:45;30.17;;;18.20;;
21671;SDS011;10997;52.242;8.168;2023-03-21T10:39:49;31.52;;;17.58;;
21671;SDS011;10997;52.242;8.168;2023-03-21T10:44:53;30.02;;;17.13;;
21671;SDS011;10997;52.242;8.168;2023-03-21T10:50:06;31.83;;;16.80;;
21671;SDS011;10997;52.242;8.168;2023-03-21T10:55:19;27.23;;;16.13;;
21671;SDS011;10997;52.242;8.168;2023-03-21T11:00:27;29.77;;;16.90;;
21671;SDS011;10997;52.242;8.168;2023-03-21T11:05:34;28.00;;;16.92;;
21671;SDS011;10997;52.242;8.168;2023-03-21T11:10:47;24.48;;;17.30;;
21671;SDS011;10997;52.242;8.168;2023-03-21T11:15:55;25.35;;;16.83;;
21671;SDS011;10997;52.242;8.168;2023-03-21T11:21:01;25.77;;;16.98;;
21671;SDS011;10997;52.242;8.168;2023-03-21T11:26:08;30.48;;;18.33;;
21671;SDS011;10997;52.242;8.168;2023-03-21T11:31:10;29.77;;;18.60;;
21671;SDS011;10997;52.242;8.168;2023-03-21T11:41:21;29.38;;;17.52;;
21671;SDS011;10997;52.242;8.168;2023-03-21T11:46:25;26.52;;;16.80;;
21671;SDS011;10997;52.242;8.168;2023-03-21T11:56:32;30.90;;;18.17;;
21671;SDS011;10997;52.242;8.168;2023-03-21T12:01:39;26.50;;;16.88;;
21671;SDS011;10997;52.242;8.168;2023-03-21T12:07:02;24.42;;;17.13;;
21671;SDS011;10997;52.242;8.168;2023-03-21T12:13:30;31.52;;;17.98;;
21671;SDS011;10997;52.242;8.168;2023-03-21T12:18:06;29.45;;;18.27;;
21671;SDS011;10997;52.242;8.168;2023-03-21T12:28:30;25.15;;;18.55;;
21671;SDS011;10997;52.242;8.168;2023-03-21T12:33:35;29.40;;;17.85;;
21671;SDS011;10997;52.242;8.168;2023-03-21T12:39:09;26.05;;;18.35;;
21671;SDS011;10997;52.242;8.168;2023-03-21T12:44:28;27.15;;;18.88;;
21671;SDS011;10997;52.242;8.168;2023-03-21T12:49:40;29.58;;;20.05;;
21671;SDS011;10997;52.242;8.168;2023-03-21T12:54:49;28.33;;;20.10;;
21671;SDS011;10997;52.242;8.168;2023-03-21T13:05:35;28.02;;;19.23;;
21671;SDS011;10997;52.242;8.168;2023-03-21T13:10:42;26.55;;;18.10;;
21671;SDS011;10997;52.242;8.168;2023-03-21T13:20:52;26.13;;;18.63;;
21671;SDS011;10997;52.242;8.168;2023-03-21T13:25:56;22.65;;;16.48;;
21671;SDS011;10997;52.242;8.168;2023-03-21T13:36:25;22.52;;;15.20;;
21671;SDS011;10997;52.242;8.168;2023-03-21T13:41:37;21.83;;;13.32;;
21671;SDS011;10997;52.242;8.168;2023-03-21T13:46:42;20.25;;;11.77;;
21671;SDS011;10997;52.242;8.168;2023-03-21T13:51:54;17.63;;;11.10;;
21671;SDS011;10997;52.242;8.168;2023-03-21T13:56:58;19.05;;;10.85;;
21671;SDS011;10997;52.242;8.168;2023-03-21T14:07:11;14.80;;;9.32;;
21671;SDS011;10997;52.242;8.168;2023-03-21T14:12:21;13.40;;;7.45;;
21671;SDS011;10997;52.242;8.168;2023-03-21T14:17:26;14.55;;;8.23;;
21671;SDS011;10997;52.242;8.168;2023-03-21T14:22:28;15.27;;;8.32;;
21671;SDS011;10997;52.242;8.168;2023-03-21T14:27:30;16.63;;;8.00;;
21671;SDS011;10997;52.242;8.168;2023-03-21T14:32:33;22.60;;;19.10;;
21671;SDS011;10997;52.242;8.168;2023-03-21T14:37:41;16.80;;;9.35;;
21671;SDS011;10997;52.242;8.168;2023-03-21T14:42:45;33.72;;;26.02;;
21671;SDS011;10997;52.242;8.168;2023-03-21T14:52:57;15.20;;;8.23;;
21671;SDS011;10997;52.242;8.168;2023-03-21T14:57:58;14.27;;;8.63;;
21671;SDS011;10997;52.242;8.168;2023-03-21T15:02:59;12.05;;;8.00;;
21671;SDS011;10997;52.242;8.168;2023-03-21T15:08:11;17.23;;;10.43;;
21671;SDS011;10997;52.242;8.168;2023-03-21T15:13:18;17.85;;;10.30;;
21671;SDS011;10997;52.242;8.168;2023-03-21T15:18:25;14.70;;;8.77;;
21671;SDS011;10997;52.242;8.168;2023-03-21T15:23:35;15.43;;;9.75;;
21671;SDS011;10997;52.242;8.168;2023-03-21T15:28:40;12.77;;;7.30;;
21671;SDS011;10997;52.242;8.168;2023-03-21T15:33:43;12.75;;;7.00;;
21671;SDS011;10997;52.242;8.168;2023-03-21T15:38:48;12.60;;;7.60;;
21671;SDS011;10997;52.242;8.168;2023-03-21T15:43:58;12.93;;;6.25;;
21671;SDS011;10997;52.242;8.168;2023-03-21T15:49:06;12.10;;;5.45;;
21671;SDS011;10997;52.242;8.168;2023-03-21T15:54:14;9.77;;;5.50;;
21671;SDS011;10997;52.242;8.168;2023-03-21T15:59:18;8.27;;;5.07;;
21671;SDS011;10997;52.242;8.168;2023-03-21T16:04:18;8.68;;;5.13;;
21671;SDS011;10997;52.242;8.168;2023-03-21T16:09:21;10.30;;;5.07;;
21671;SDS011;10997;52.242;8.168;2023-03-21T16:14:23;11.10;;;4.80;;
21671;SDS011;10997;52.242;8.168;2023-03-21T16:19:26;11.23;;;5.22;;
21671;SDS011;10997;52.242;8.168;2023-03-21T16:24:28;8.82;;;4.50;;
21671;SDS011;10997;52.242;8.168;2023-03-21T16:29:29;9.93;;;6.13;;
21671;SDS011;10997;52.242;8.168;2023-03-21T16:34:30;11.10;;;7.85;;
21671;SDS011;10997;52.242;8.168;2023-03-21T16:39:31;7.65;;;4.35;;
21671;SDS011;10997;52.242;8.168;2023-03-21T16:44:31;10.20;;;6.72;;
21671;SDS011;10997;52.242;8.168;2023-03-21T16:49:32;7.03;;;5.20;;
21671;SDS011;10997;52.242;8.168;2023-03-21T16:54:33;8.50;;;4.40;;
21671;SDS011;10997;52.242;8.168;2023-03-21T16:59:34;14.88;;;4.78;;
21671;SDS011;10997;52.242;8.168;2023-03-21T17:04:34;7.13;;;4.35;;
21671;SDS011;10997;52.242;8.168;2023-03-21T17:09:36;11.82;;;6.68;;
21671;SDS011;10997;52.242;8.168;2023-03-21T17:14:37;7.68;;;4.50;;
21671;SDS011;10997;52.242;8.168;2023-03-21T17:19:38;6.95;;;4.60;;
21671;SDS011;10997;52.242;8.168;2023-03-21T17:24:39;7.57;;;4.47;;
21671;SDS011;10997;52.242;8.168;2023-03-21T17:29:39;6.93;;;4.70;;
21671;SDS011;10997;52.242;8.168;2023-03-21T17:34:40;6.53;;;4.38;;
21671;SDS011;10997;52.242;8.168;2023-03-21T17:39:41;9.45;;;4.53;;
21671;SDS011;10997;52.242;8.168;2023-03-21T17:44:41;9.80;;;5.47;;
21671;SDS011;10997;52.242;8.168;2023-03-21T17:49:42;9.35;;;4.90;;
21671;SDS011;10997;52.242;8.168;2023-03-21T17:54:43;9.88;;;5.63;;
21671;SDS011;10997;52.242;8.168;2023-03-21T17:59:43;11.70;;;7.32;;
21671;SDS011;10997;52.242;8.168;2023-03-21T18:04:44;10.98;;;5.22;;
21671;SDS011;10997;52.242;8.168;2023-03-21T18:09:44;9.88;;;5.65;;
21671;SDS011;10997;52.242;8.168;2023-03-21T18:14:45;9.07;;;5.57;;
21671;SDS011;10997;52.242;8.168;2023-03-21T18:19:46;10.57;;;6.20;;
21671;SDS011;10997;52.242;8.168;2023-03-21T18:24:46;9.73;;;5.50;;
21671;SDS011;10997;52.242;8.168;2023-03-21T18:29:47;15.73;;;7.15;;
21671;SDS011;10997;52.242;8.168;2023-03-21T18:34:48;26.85;;;18.10;;
21671;SDS011;10997;52.242;8.168;2023-03-21T18:39:49;8.93;;;5.82;;
21671;SDS011;10997;52.242;8.168;2023-03-21T18:44:50;18.60;;;16.63;;
21671;SDS011;10997;52.242;8.168;2023-03-21T18:49:51;10.10;;;7.05;;
21671;SDS011;10997;52.242;8.168;2023-03-21T18:54:52;10.50;;;8.63;;
21671;SDS011;10997;52.242;8.168;2023-03-21T18:59:53;11.65;;;8.55;;
21671;SDS011;10997;52.242;8.168;2023-03-21T19:04:53;13.25;;;7.25;;
21671;SDS011;10997;52.242;8.168;2023-03-21T19:09:56;11.43;;;7.43;;
21671;SDS011;10997;52.242;8.168;2023-03-21T19:14:57;13.32;;;10.27;;
21671;SDS011;10997;52.242;8.168;2023-03-21T19:19:58;16.17;;;9.63;;
21671;SDS011;10997;52.242;8.168;2023-03-21T19:24:58;11.93;;;6.85;;
21671;SDS011;10997;52.242;8.168;2023-03-21T19:29:59;11.23;;;7.20;;
21671;SDS011;10997;52.242;8.168;2023-03-21T19:35:09;13.05;;;7.30;;
21671;SDS011;10997;52.242;8.168;2023-03-21T19:40:11;13.68;;;8.48;;
21671;SDS011;10997;52.242;8.168;2023-03-21T19:45:12;9.65;;;7.20;;
21671;SDS011;10997;52.242;8.168;2023-03-21T19:50:12;16.50;;;8.02;;
21671;SDS011;10997;52.242;8.168;2023-03-21T19:55:13;10.75;;;7.75;;
21671;SDS011;10997;52.242;8.168;2023-03-21T20:00:15;21.58;;;11.43;;
21671;SDS011;10997;52.242;8.168;2023-03-21T20:05:16;14.90;;;8.75;;
21671;SDS011;10997;52.242;8.168;2023-03-21T20:10:21;21.85;;;12.63;;
21671;SDS011;10997;52.242;8.168;2023-03-21T20:15:22;12.27;;;8.88;;
21671;SDS011;10997;52.242;8.168;2023-03-21T20:20:29;10.73;;;7.55;;
21671;SDS011;10997;52.242;8.168;2023-03-21T20:25:30;11.85;;;8.82;;
21671;SDS011;10997;52.242;8.168;2023-03-21T20:30:32;14.63;;;9.95;;
21671;SDS011;10997;52.242;8.168;2023-03-21T20:35:33;13.95;;;8.43;;
21671;SDS011;10997;52.242;8.168;2023-03-21T20:40:34;11.55;;;8.40;;
21671;SDS011;10997;52.242;8.168;2023-03-21T20:45:36;15.55;;;12.38;;
21671;SDS011;10997;52.242;8.168;2023-03-21T20:50:37;17.35;;;9.63;;
21671;SDS011;10997;52.242;8.168;2023-03-21T20:55:37;16.02;;;11.52;;
21671;SDS011;10997;52.242;8.168;2023-03-21T21:00:38;14.88;;;9.13;;
21671;SDS011;10997;52.242;8.168;2023-03-21T21:05:43;16.30;;;11.15;;
21671;SDS011;10997;52.242;8.168;2023-03-21T21:10:45;12.55;;;9.35;;
21671;SDS011;10997;52.242;8.168;2023-03-21T21:15:48;18.10;;;11.32;;
21671;SDS011;10997;52.242;8.168;2023-03-21T21:20:53;12.18;;;9.27;;
21671;SDS011;10997;52.242;8.168;2023-03-21T21:25:55;16.37;;;10.13;;
21671;SDS011;10997;52.242;8.168;2023-03-21T21:31:09;16.27;;;10.13;;
21671;SDS011;10997;52.242;8.168;2023-03-21T21:36:13;16.40;;;9.93;;
21671;SDS011;10997;52.242;8.168;2023-03-21T21:41:16;19.00;;;12.52;;
21671;SDS011;10997;52.242;8.168;2023-03-21T21:46:18;32.25;;;18.00;;
21671;SDS011;10997;52.242;8.168;2023-03-21T21:51:19;59.90;;;32.00;;
21671;SDS011;10997;52.242;8.168;2023-03-21T21:56:25;67.47;;;39.80;;
21671;SDS011;10997;52.242;8.168;2023-03-21T22:01:31;17.33;;;11.75;;
21671;SDS011;10997;52.242;8.168;2023-03-21T22:06:37;17.95;;;11.90;;
21671;SDS011;10997;52.242;8.168;2023-03-21T22:11:38;14.75;;;10.13;;
21671;SDS011;10997;52.242;8.168;2023-03-21T22:16:38;15.15;;;10.38;;
21671;SDS011;10997;52.242;8.168;2023-03-21T22:21:39;16.80;;;11.25;;
21671;SDS011;10997;52.242;8.168;2023-03-21T22:26:40;21.08;;;11.68;;
21671;SDS011;10997;52.242;8.168;2023-03-21T22:31:40;16.45;;;10.55;;
21671;SDS011;10997;52.242;8.168;2023-03-21T22:36:41;18.92;;;12.13;;
21671;SDS011;10997;52.242;8.168;2023-03-21T22:41:45;20.15;;;11.10;;
21671;SDS011;10997;52.242;8.168;2023-03-21T22:46:46;16.55;;;11.07;;
21671;SDS011;10997;52.242;8.168;2023-03-21T22:51:47;16.95;;;11.30;;
21671;SDS011;10997;52.242;8.168;2023-03-21T22:56:47;17.15;;;11.02;;
21671;SDS011;10997;52.242;8.168;2023-03-21T23:01:48;15.18;;;10.52;;
21671;SDS011;10997;52.242;8.168;2023-03-21T23:06:49;15.60;;;10.00;;
21671;SDS011;10997;52.242;8.168;2023-03-21T23:11:49;18.48;;;10.55;;
21671;SDS011;10997;52.242;8.168;2023-03-21T23:16:50;14.15;;;10.43;;
21671;SDS011;10997;52.242;8.168;2023-03-21T23:21:59;14.95;;;10.18;;
21671;SDS011;10997;52.242;8.168;2023-03-21T23:27:00;13.55;;;10.38;;
21671;SDS011;10997;52.242;8.168;2023-03-21T23:32:02;16.60;;;10.70;;
21671;SDS011;10997;52.242;8.168;2023-03-21T23:37:03;17.23;;;10.38;;
21671;SDS011;10997;52.242;8.168;2023-03-21T23:42:04;15.80;;;9.82;;
21671;SDS011;10997;52.242;8.168;2023-03-21T23:47:05;14.75;;;9.75;;
21671;SDS011;10997;52.242;8.168;2023-03-21T23:52:06;14.95;;;9.80;;
21671;SDS011;10997;52.242;8.168;2023-03-21T23:57:06;14.40;;;9.55;;
